sensor_id;sensor_type;location;lat;lon;timestamp;temperature;humidity
45843;DHT22;31563;51.744;8.252;2023-04-24T00:01:20;24.00;40.50
45843;DHT22;31563;51.744;8.252;2023-04-24T00:03:48;24.00;40.50
45843;DHT22;31563;51.744;8.252;2023-04-24T00:06:17;24.00;40.50
45843;DHT22;31563;51.744;8.252;2023-04-24T00:08:45;24.00;40.50
45843;DHT22;31563;51.744;8.252;2023-04-24T00:11:13;24.00;40.40
45843;DHT22;31563;51.744;8.252;2023-04-24T00:13:41;24.00;40.50
45843;DHT22;31563;51.744;8.252;2023-04-24T00:16:11;23.90;40.30
45843;DHT22;31563;51.744;8.252;2023-04-24T00:18:39;23.90;40.30
45843;DHT22;31563;51.744;8.252;2023-04-24T00:21:08;23.90;40.40
45843;DHT22;31563;51.744;8.252;2023-04-24T00:23:36;23.90;40.40
45843;DHT22;31563;51.744;8.252;2023-04-24T00:26:04;23.90;40.40
45843;DHT22;31563;51.744;8.252;2023-04-24T00:28:32;23.90;40.40
45843;DHT22;31563;51.744;8.252;2023-04-24T00:31:01;23.90;40.40
45843;DHT22;31563;51.744;8.252;2023-04-24T00:33:30;23.80;40.40
45843;DHT22;31563;51.744;8.252;2023-04-24T00:35:58;23.80;40.40
45843;DHT22;31563;51.744;8.252;2023-04-24T00:38:26;23.80;40.30
45843;DHT22;31563;51.744;8.252;2023-04-24T00:40:54;23.80;40.30
45843;DHT22;31563;51.744;8.252;2023-04-24T00:43:22;23.80;40.30
45843;DHT22;31563;51.744;8.252;2023-04-24T00:45:51;23.70;40.30
45843;DHT22;31563;51.744;8.252;2023-04-24T00:48:20;23.70;40.30
45843;DHT22;31563;51.744;8.252;2023-04-24T00:50:50;23.70;40.30
45843;DHT22;31563;51.744;8.252;2023-04-24T00:53:18;23.70;40.30
45843;DHT22;31563;51.744;8.252;2023-04-24T00:55:46;23.70;40.30
45843;DHT22;31563;51.744;8.252;2023-04-24T00:58:15;23.70;40.30
45843;DHT22;31563;51.744;8.252;2023-04-24T01:00:44;23.60;40.30
45843;DHT22;31563;51.744;8.252;2023-04-24T01:03:13;23.60;40.30
45843;DHT22;31563;51.744;8.252;2023-04-24T01:05:41;23.50;40.30
45843;DHT22;31563;51.744;8.252;2023-04-24T01:08:11;23.50;40.40
45843;DHT22;31563;51.744;8.252;2023-04-24T01:10:41;23.50;40.40
45843;DHT22;31563;51.744;8.252;2023-04-24T01:13:09;23.50;40.40
45843;DHT22;31563;51.744;8.252;2023-04-24T01:15:38;23.40;39.90
45843;DHT22;31563;51.744;8.252;2023-04-24T01:18:06;23.30;40.60
45843;DHT22;31563;51.744;8.252;2023-04-24T01:20:35;23.30;40.70
45843;DHT22;31563;51.744;8.252;2023-04-24T01:23:08;23.30;40.80
45843;DHT22;31563;51.744;8.252;2023-04-24T01:25:37;23.30;40.70
45843;DHT22;31563;51.744;8.252;2023-04-24T01:28:05;23.30;40.70
45843;DHT22;31563;51.744;8.252;2023-04-24T01:30:34;23.30;40.70
45843;DHT22;31563;51.744;8.252;2023-04-24T01:33:02;23.20;40.70
45843;DHT22;31563;51.744;8.252;2023-04-24T01:35:30;23.20;40.60
45843;DHT22;31563;51.744;8.252;2023-04-24T01:37:59;23.20;40.70
45843;DHT22;31563;51.744;8.252;2023-04-24T01:40:28;23.20;40.70
45843;DHT22;31563;51.744;8.252;2023-04-24T01:42:57;23.10;40.70
45843;DHT22;31563;51.744;8.252;2023-04-24T01:45:26;23.10;40.60
45843;DHT22;31563;51.744;8.252;2023-04-24T01:47:54;23.10;40.70
45843;DHT22;31563;51.744;8.252;2023-04-24T01:50:22;23.10;40.70
45843;DHT22;31563;51.744;8.252;2023-04-24T01:52:50;23.10;40.60
45843;DHT22;31563;51.744;8.252;2023-04-24T01:55:19;23.10;40.70
45843;DHT22;31563;51.744;8.252;2023-04-24T01:57:49;23.10;40.70
45843;DHT22;31563;51.744;8.252;2023-04-24T02:00:17;23.10;40.70
45843;DHT22;31563;51.744;8.252;2023-04-24T02:02:46;23.00;40.70
45843;DHT22;31563;51.744;8.252;2023-04-24T02:05:14;23.00;40.70
45843;DHT22;31563;51.744;8.252;2023-04-24T02:07:43;23.00;40.70
45843;DHT22;31563;51.744;8.252;2023-04-24T02:10:11;23.00;40.70
45843;DHT22;31563;51.744;8.252;2023-04-24T02:12:39;22.90;40.70
45843;DHT22;31563;51.744;8.252;2023-04-24T02:15:10;22.90;40.60
45843;DHT22;31563;51.744;8.252;2023-04-24T02:17:38;22.90;40.70
45843;DHT22;31563;51.744;8.252;2023-04-24T02:20:07;22.90;40.70
45843;DHT22;31563;51.744;8.252;2023-04-24T02:22:36;22.80;41.30
45843;DHT22;31563;51.744;8.252;2023-04-24T02:25:04;22.80;40.70
45843;DHT22;31563;51.744;8.252;2023-04-24T02:27:33;22.80;40.60
45843;DHT22;31563;51.744;8.252;2023-04-24T02:30:01;22.80;40.70
45843;DHT22;31563;51.744;8.252;2023-04-24T02:32:31;22.80;40.70
45843;DHT22;31563;51.744;8.252;2023-04-24T02:35:00;22.80;40.80
45843;DHT22;31563;51.744;8.252;2023-04-24T02:37:28;22.80;40.80
45843;DHT22;31563;51.744;8.252;2023-04-24T02:39:57;22.80;40.80
45843;DHT22;31563;51.744;8.252;2023-04-24T02:42:25;22.80;40.80
45843;DHT22;31563;51.744;8.252;2023-04-24T02:44:53;22.70;40.70
45843;DHT22;31563;51.744;8.252;2023-04-24T02:47:21;22.70;40.70
45843;DHT22;31563;51.744;8.252;2023-04-24T02:49:51;22.80;40.80
45843;DHT22;31563;51.744;8.252;2023-04-24T02:52:19;22.70;40.80
45843;DHT22;31563;51.744;8.252;2023-04-24T02:54:47;22.70;40.80
45843;DHT22;31563;51.744;8.252;2023-04-24T02:57:15;22.70;40.70
45843;DHT22;31563;51.744;8.252;2023-04-24T02:59:44;22.70;40.70
45843;DHT22;31563;51.744;8.252;2023-04-24T03:02:12;22.70;40.70
45843;DHT22;31563;51.744;8.252;2023-04-24T03:04:40;22.70;40.80
45843;DHT22;31563;51.744;8.252;2023-04-24T03:07:11;22.70;40.80
45843;DHT22;31563;51.744;8.252;2023-04-24T03:09:39;22.70;40.80
45843;DHT22;31563;51.744;8.252;2023-04-24T03:12:07;22.70;40.80
45843;DHT22;31563;51.744;8.252;2023-04-24T03:14:36;22.60;40.70
45843;DHT22;31563;51.744;8.252;2023-04-24T03:17:04;22.70;40.80
45843;DHT22;31563;51.744;8.252;2023-04-24T03:19:32;22.60;40.70
45843;DHT22;31563;51.744;8.252;2023-04-24T03:22:02;22.60;40.80
45843;DHT22;31563;51.744;8.252;2023-04-24T03:24:31;22.60;40.70
45843;DHT22;31563;51.744;8.252;2023-04-24T03:26:59;22.60;40.80
45843;DHT22;31563;51.744;8.252;2023-04-24T03:29:28;22.60;40.80
45843;DHT22;31563;51.744;8.252;2023-04-24T03:31:56;22.60;40.80
45843;DHT22;31563;51.744;8.252;2023-04-24T03:34:24;22.60;40.80
45843;DHT22;31563;51.744;8.252;2023-04-24T03:36:52;22.50;40.70
45843;DHT22;31563;51.744;8.252;2023-04-24T03:39:20;22.50;40.70
45843;DHT22;31563;51.744;8.252;2023-04-24T03:41:50;22.50;40.70
45843;DHT22;31563;51.744;8.252;2023-04-24T03:44:18;22.50;40.70
45843;DHT22;31563;51.744;8.252;2023-04-24T03:46:46;22.50;40.70
45843;DHT22;31563;51.744;8.252;2023-04-24T03:49:14;22.50;40.70
45843;DHT22;31563;51.744;8.252;2023-04-24T03:51:42;22.50;40.70
45843;DHT22;31563;51.744;8.252;2023-04-24T03:54:11;22.50;40.80
45843;DHT22;31563;51.744;8.252;2023-04-24T03:56:39;22.50;40.70
45843;DHT22;31563;51.744;8.252;2023-04-24T03:59:08;22.40;40.70
45843;DHT22;31563;51.744;8.252;2023-04-24T04:01:37;22.40;40.70
45843;DHT22;31563;51.744;8.252;2023-04-24T04:04:09;22.40;40.70
45843;DHT22;31563;51.744;8.252;2023-04-24T04:06:38;22.40;40.70
45843;DHT22;31563;51.744;8.252;2023-04-24T04:09:06;22.40;40.60
45843;DHT22;31563;51.744;8.252;2023-04-24T04:11:35;22.40;40.70
45843;DHT22;31563;51.744;8.252;2023-04-24T04:14:03;22.30;40.60
45843;DHT22;31563;51.744;8.252;2023-04-24T04:16:33;22.30;40.60
45843;DHT22;31563;51.744;8.252;2023-04-24T04:19:03;22.30;40.60
45843;DHT22;31563;51.744;8.252;2023-04-24T04:21:32;22.30;40.50
45843;DHT22;31563;51.744;8.252;2023-04-24T04:24:00;22.30;40.50
45843;DHT22;31563;51.744;8.252;2023-04-24T04:26:28;22.30;40.60
45843;DHT22;31563;51.744;8.252;2023-04-24T04:28:59;22.10;39.10
45843;DHT22;31563;51.744;8.252;2023-04-24T04:31:28;21.80;39.50
45843;DHT22;31563;51.744;8.252;2023-04-24T04:33:58;21.70;41.00
45843;DHT22;31563;51.744;8.252;2023-04-24T04:36:28;21.80;41.00
45843;DHT22;31563;51.744;8.252;2023-04-24T04:38:57;21.90;41.00
45843;DHT22;31563;51.744;8.252;2023-04-24T04:41:26;21.90;41.00
45843;DHT22;31563;51.744;8.252;2023-04-24T04:43:54;21.90;40.80
45843;DHT22;31563;51.744;8.252;2023-04-24T04:46:25;21.90;40.80
45843;DHT22;31563;51.744;8.252;2023-04-24T04:48:53;21.90;40.80
45843;DHT22;31563;51.744;8.252;2023-04-24T04:51:24;22.00;40.80
45843;DHT22;31563;51.744;8.252;2023-04-24T04:53:52;22.00;40.80
45843;DHT22;31563;51.744;8.252;2023-04-24T04:56:21;22.00;40.70
45843;DHT22;31563;51.744;8.252;2023-04-24T04:58:49;21.90;40.70
45843;DHT22;31563;51.744;8.252;2023-04-24T05:01:17;21.90;40.70
45843;DHT22;31563;51.744;8.252;2023-04-24T05:03:45;21.90;40.60
45843;DHT22;31563;51.744;8.252;2023-04-24T05:06:14;22.00;40.60
45843;DHT22;31563;51.744;8.252;2023-04-24T05:08:43;22.00;40.50
45843;DHT22;31563;51.744;8.252;2023-04-24T05:11:12;22.00;40.50
45843;DHT22;31563;51.744;8.252;2023-04-24T05:13:40;22.00;40.30
45843;DHT22;31563;51.744;8.252;2023-04-24T05:16:08;22.00;40.50
45843;DHT22;31563;51.744;8.252;2023-04-24T05:18:36;22.00;40.50
45843;DHT22;31563;51.744;8.252;2023-04-24T05:21:04;22.10;40.50
45843;DHT22;31563;51.744;8.252;2023-04-24T05:23:33;22.00;40.30
45843;DHT22;31563;51.744;8.252;2023-04-24T05:26:02;22.10;40.30
45843;DHT22;31563;51.744;8.252;2023-04-24T05:28:33;22.10;40.10
45843;DHT22;31563;51.744;8.252;2023-04-24T05:31:03;22.20;40.30
45843;DHT22;31563;51.744;8.252;2023-04-24T05:33:32;22.20;40.20
45843;DHT22;31563;51.744;8.252;2023-04-24T05:36:00;22.30;39.90
45843;DHT22;31563;51.744;8.252;2023-04-24T05:38:28;22.30;39.90
45843;DHT22;31563;51.744;8.252;2023-04-24T05:40:56;22.30;40.40
45843;DHT22;31563;51.744;8.252;2023-04-24T05:43:26;22.30;39.70
45843;DHT22;31563;51.744;8.252;2023-04-24T05:45:54;22.30;39.80
45843;DHT22;31563;51.744;8.252;2023-04-24T05:48:22;22.30;39.80
45843;DHT22;31563;51.744;8.252;2023-04-24T05:50:50;22.30;39.60
45843;DHT22;31563;51.744;8.252;2023-04-24T05:53:19;22.20;39.50
45843;DHT22;31563;51.744;8.252;2023-04-24T05:55:47;22.30;39.60
45843;DHT22;31563;51.744;8.252;2023-04-24T05:58:15;22.30;39.70
45843;DHT22;31563;51.744;8.252;2023-04-24T06:00:45;22.20;39.40
45843;DHT22;31563;51.744;8.252;2023-04-24T06:03:13;22.30;39.60
45843;DHT22;31563;51.744;8.252;2023-04-24T06:05:42;22.30;39.60
45843;DHT22;31563;51.744;8.252;2023-04-24T06:08:10;22.30;39.30
45843;DHT22;31563;51.744;8.252;2023-04-24T06:10:39;22.40;39.40
45843;DHT22;31563;51.744;8.252;2023-04-24T06:13:08;22.40;39.30
45843;DHT22;31563;51.744;8.252;2023-04-24T06:15:36;22.40;39.20
45843;DHT22;31563;51.744;8.252;2023-04-24T06:18:06;22.30;39.00
45843;DHT22;31563;51.744;8.252;2023-04-24T06:20:37;22.20;38.90
45843;DHT22;31563;51.744;8.252;2023-04-24T06:23:05;22.20;39.30
45843;DHT22;31563;51.744;8.252;2023-04-24T06:25:33;22.20;40.00
45843;DHT22;31563;51.744;8.252;2023-04-24T06:28:01;22.30;40.40
45843;DHT22;31563;51.744;8.252;2023-04-24T06:30:29;22.40;40.50
45843;DHT22;31563;51.744;8.252;2023-04-24T06:32:57;22.40;40.20
45843;DHT22;31563;51.744;8.252;2023-04-24T06:35:46;22.40;40.30
45843;DHT22;31563;51.744;8.252;2023-04-24T06:38:14;22.40;40.30
45843;DHT22;31563;51.744;8.252;2023-04-24T06:40:43;22.30;40.20
45843;DHT22;31563;51.744;8.252;2023-04-24T06:43:11;22.30;40.20
45843;DHT22;31563;51.744;8.252;2023-04-24T06:45:39;22.30;40.30
45843;DHT22;31563;51.744;8.252;2023-04-24T06:48:08;22.30;40.40
45843;DHT22;31563;51.744;8.252;2023-04-24T06:50:36;22.40;40.40
45843;DHT22;31563;51.744;8.252;2023-04-24T06:53:05;22.40;40.20
45843;DHT22;31563;51.744;8.252;2023-04-24T06:55:34;22.50;40.00
45843;DHT22;31563;51.744;8.252;2023-04-24T06:58:03;22.60;40.00
45843;DHT22;31563;51.744;8.252;2023-04-24T07:00:32;22.60;39.80
45843;DHT22;31563;51.744;8.252;2023-04-24T07:03:01;22.70;39.80
45843;DHT22;31563;51.744;8.252;2023-04-24T07:05:29;22.70;39.50
45843;DHT22;31563;51.744;8.252;2023-04-24T07:07:57;22.70;39.40
45843;DHT22;31563;51.744;8.252;2023-04-24T07:10:27;22.70;39.30
45843;DHT22;31563;51.744;8.252;2023-04-24T07:12:55;22.70;39.30
45843;DHT22;31563;51.744;8.252;2023-04-24T07:15:24;22.80;39.40
45843;DHT22;31563;51.744;8.252;2023-04-24T07:17:52;22.80;39.00
45843;DHT22;31563;51.744;8.252;2023-04-24T07:20:20;22.90;39.20
45843;DHT22;31563;51.744;8.252;2023-04-24T07:22:48;22.90;38.90
45843;DHT22;31563;51.744;8.252;2023-04-24T07:25:18;23.00;38.90
45843;DHT22;31563;51.744;8.252;2023-04-24T07:27:48;23.10;38.80
45843;DHT22;31563;51.744;8.252;2023-04-24T07:30:16;23.20;38.50
45843;DHT22;31563;51.744;8.252;2023-04-24T07:32:44;23.50;38.50
45843;DHT22;31563;51.744;8.252;2023-04-24T07:35:12;23.80;37.80
45843;DHT22;31563;51.744;8.252;2023-04-24T07:37:40;24.00;38.10
45843;DHT22;31563;51.744;8.252;2023-04-24T07:40:12;24.00;37.30
45843;DHT22;31563;51.744;8.252;2023-04-24T07:42:40;23.80;36.90
45843;DHT22;31563;51.744;8.252;2023-04-24T07:45:10;23.70;37.20
45843;DHT22;31563;51.744;8.252;2023-04-24T07:47:38;23.40;36.80
45843;DHT22;31563;51.744;8.252;2023-04-24T07:50:06;23.40;37.30
45843;DHT22;31563;51.744;8.252;2023-04-24T07:52:35;23.30;37.40
45843;DHT22;31563;51.744;8.252;2023-04-24T07:55:04;23.20;37.60
45843;DHT22;31563;51.744;8.252;2023-04-24T07:57:32;23.10;37.60
45843;DHT22;31563;51.744;8.252;2023-04-24T08:00:00;23.10;37.60
45843;DHT22;31563;51.744;8.252;2023-04-24T08:02:30;23.00;37.60
45843;DHT22;31563;51.744;8.252;2023-04-24T08:04:58;22.90;37.80
45843;DHT22;31563;51.744;8.252;2023-04-24T08:07:26;22.90;37.80
45843;DHT22;31563;51.744;8.252;2023-04-24T08:09:55;22.90;38.00
45843;DHT22;31563;51.744;8.252;2023-04-24T08:12:23;23.00;38.40
45843;DHT22;31563;51.744;8.252;2023-04-24T08:14:51;23.10;38.30
45843;DHT22;31563;51.744;8.252;2023-04-24T08:17:19;23.10;38.40
45843;DHT22;31563;51.744;8.252;2023-04-24T08:19:48;23.20;38.40
45843;DHT22;31563;51.744;8.252;2023-04-24T08:22:17;23.30;38.30
45843;DHT22;31563;51.744;8.252;2023-04-24T08:24:46;23.30;38.10
45843;DHT22;31563;51.744;8.252;2023-04-24T08:27:14;23.30;38.20
45843;DHT22;31563;51.744;8.252;2023-04-24T08:29:42;23.20;38.20
45843;DHT22;31563;51.744;8.252;2023-04-24T08:32:10;23.30;38.30
45843;DHT22;31563;51.744;8.252;2023-04-24T08:34:38;23.40;38.10
45843;DHT22;31563;51.744;8.252;2023-04-24T08:37:08;23.30;38.10
45843;DHT22;31563;51.744;8.252;2023-04-24T08:39:36;23.30;38.10
45843;DHT22;31563;51.744;8.252;2023-04-24T08:42:05;23.20;38.10
45843;DHT22;31563;51.744;8.252;2023-04-24T08:44:35;23.10;38.20
45843;DHT22;31563;51.744;8.252;2023-04-24T08:47:04;23.10;38.20
45843;DHT22;31563;51.744;8.252;2023-04-24T08:49:33;23.20;38.20
45843;DHT22;31563;51.744;8.252;2023-04-24T08:52:05;23.20;38.20
45843;DHT22;31563;51.744;8.252;2023-04-24T08:54:35;23.20;38.20
45843;DHT22;31563;51.744;8.252;2023-04-24T08:57:07;23.20;37.70
45843;DHT22;31563;51.744;8.252;2023-04-24T08:59:38;23.30;37.70
45843;DHT22;31563;51.744;8.252;2023-04-24T09:02:10;23.20;37.30
45843;DHT22;31563;51.744;8.252;2023-04-24T09:04:40;23.10;36.40
45843;DHT22;31563;51.744;8.252;2023-04-24T09:07:10;22.70;36.00
45843;DHT22;31563;51.744;8.252;2023-04-24T09:09:41;22.50;36.60
45843;DHT22;31563;51.744;8.252;2023-04-24T09:12:10;22.30;36.70
45843;DHT22;31563;51.744;8.252;2023-04-24T09:14:39;22.10;36.90
45843;DHT22;31563;51.744;8.252;2023-04-24T09:17:12;22.20;37.30
45843;DHT22;31563;51.744;8.252;2023-04-24T09:19:40;22.50;37.60
45843;DHT22;31563;51.744;8.252;2023-04-24T09:22:09;22.70;36.60
45843;DHT22;31563;51.744;8.252;2023-04-24T09:24:38;22.80;36.90
45843;DHT22;31563;51.744;8.252;2023-04-24T09:27:11;23.00;36.80
45843;DHT22;31563;51.744;8.252;2023-04-24T09:29:39;23.00;36.00
45843;DHT22;31563;51.744;8.252;2023-04-24T09:32:21;22.70;35.50
45843;DHT22;31563;51.744;8.252;2023-04-24T09:35:06;22.40;35.80
45843;DHT22;31563;51.744;8.252;2023-04-24T09:37:39;22.50;36.70
45843;DHT22;31563;51.744;8.252;2023-04-24T09:40:15;22.70;37.40
45843;DHT22;31563;51.744;8.252;2023-04-24T09:42:46;22.90;37.40
45843;DHT22;31563;51.744;8.252;2023-04-24T09:45:14;22.90;37.30
45843;DHT22;31563;51.744;8.252;2023-04-24T09:47:42;23.10;37.60
45843;DHT22;31563;51.744;8.252;2023-04-24T09:50:13;23.10;37.70
45843;DHT22;31563;51.744;8.252;2023-04-24T09:52:44;23.20;37.70
45843;DHT22;31563;51.744;8.252;2023-04-24T09:55:18;23.20;37.70
45843;DHT22;31563;51.744;8.252;2023-04-24T09:57:52;23.20;37.70
45843;DHT22;31563;51.744;8.252;2023-04-24T10:00:25;23.30;37.80
45843;DHT22;31563;51.744;8.252;2023-04-24T10:02:57;23.60;37.80
45843;DHT22;31563;51.744;8.252;2023-04-24T10:05:30;23.80;37.40
45843;DHT22;31563;51.744;8.252;2023-04-24T10:08:04;23.70;36.70
45843;DHT22;31563;51.744;8.252;2023-04-24T10:10:36;23.50;36.70
45843;DHT22;31563;51.744;8.252;2023-04-24T10:13:08;23.30;37.00
45843;DHT22;31563;51.744;8.252;2023-04-24T10:15:36;23.10;37.20
45843;DHT22;31563;51.744;8.252;2023-04-24T10:18:05;23.00;37.30
45843;DHT22;31563;51.744;8.252;2023-04-24T10:20:35;22.90;37.40
45843;DHT22;31563;51.744;8.252;2023-04-24T10:23:04;22.90;37.40
45843;DHT22;31563;51.744;8.252;2023-04-24T10:25:33;22.90;37.40
45843;DHT22;31563;51.744;8.252;2023-04-24T10:28:02;22.80;37.40
45843;DHT22;31563;51.744;8.252;2023-04-24T10:30:33;22.80;37.60
45843;DHT22;31563;51.744;8.252;2023-04-24T10:33:04;22.70;37.80
45843;DHT22;31563;51.744;8.252;2023-04-24T10:35:33;22.80;37.90
45843;DHT22;31563;51.744;8.252;2023-04-24T10:38:05;22.80;38.00
45843;DHT22;31563;51.744;8.252;2023-04-24T10:40:35;22.90;38.10
45843;DHT22;31563;51.744;8.252;2023-04-24T10:43:05;23.10;37.90
45843;DHT22;31563;51.744;8.252;2023-04-24T10:45:37;23.30;37.70
45843;DHT22;31563;51.744;8.252;2023-04-24T10:48:06;23.40;37.40
45843;DHT22;31563;51.744;8.252;2023-04-24T10:50:45;23.40;37.30
45843;DHT22;31563;51.744;8.252;2023-04-24T10:53:16;23.20;37.20
45843;DHT22;31563;51.744;8.252;2023-04-24T10:55:47;23.20;37.50
45843;DHT22;31563;51.744;8.252;2023-04-24T10:58:16;23.20;37.50
45843;DHT22;31563;51.744;8.252;2023-04-24T11:00:55;23.10;37.60
45843;DHT22;31563;51.744;8.252;2023-04-24T11:03:25;23.30;38.10
45843;DHT22;31563;51.744;8.252;2023-04-24T11:05:57;23.40;37.80
45843;DHT22;31563;51.744;8.252;2023-04-24T11:08:31;23.60;37.60
45843;DHT22;31563;51.744;8.252;2023-04-24T11:11:02;23.70;37.50
45843;DHT22;31563;51.744;8.252;2023-04-24T11:16:39;23.90;37.30
45843;DHT22;31563;51.744;8.252;2023-04-24T11:19:20;23.90;37.40
45843;DHT22;31563;51.744;8.252;2023-04-24T11:21:55;23.80;37.40
45843;DHT22;31563;51.744;8.252;2023-04-24T11:24:38;23.70;37.50
45843;DHT22;31563;51.744;8.252;2023-04-24T11:27:13;23.60;37.70
45843;DHT22;31563;51.744;8.252;2023-04-24T11:29:43;23.50;37.70
45843;DHT22;31563;51.744;8.252;2023-04-24T11:32:27;23.40;38.00
45843;DHT22;31563;51.744;8.252;2023-04-24T11:34:57;23.40;38.30
45843;DHT22;31563;51.744;8.252;2023-04-24T11:37:27;23.50;38.40
45843;DHT22;31563;51.744;8.252;2023-04-24T11:39:57;23.60;38.20
45843;DHT22;31563;51.744;8.252;2023-04-24T11:42:28;23.70;38.20
45843;DHT22;31563;51.744;8.252;2023-04-24T11:44:56;23.80;38.10
45843;DHT22;31563;51.744;8.252;2023-04-24T11:49:58;23.80;37.60
45843;DHT22;31563;51.744;8.252;2023-04-24T11:52:28;23.90;38.00
45843;DHT22;31563;51.744;8.252;2023-04-24T11:54:57;23.90;37.90
45843;DHT22;31563;51.744;8.252;2023-04-24T11:57:25;23.70;37.60
45843;DHT22;31563;51.744;8.252;2023-04-24T11:59:55;23.50;38.40
45843;DHT22;31563;51.744;8.252;2023-04-24T12:04:54;23.60;38.40
45843;DHT22;31563;51.744;8.252;2023-04-24T12:07:23;23.70;39.00
45843;DHT22;31563;51.744;8.252;2023-04-24T12:09:56;23.70;39.00
45843;DHT22;31563;51.744;8.252;2023-04-24T12:12:27;23.70;39.00
45843;DHT22;31563;51.744;8.252;2023-04-24T12:14:56;23.70;38.90
45843;DHT22;31563;51.744;8.252;2023-04-24T12:17:25;23.60;39.00
45843;DHT22;31563;51.744;8.252;2023-04-24T12:19:59;23.50;39.30
45843;DHT22;31563;51.744;8.252;2023-04-24T12:22:42;23.40;39.60
45843;DHT22;31563;51.744;8.252;2023-04-24T12:25:11;23.40;39.50
45843;DHT22;31563;51.744;8.252;2023-04-24T12:27:40;23.40;39.60
45843;DHT22;31563;51.744;8.252;2023-04-24T12:30:11;23.40;39.40
45843;DHT22;31563;51.744;8.252;2023-04-24T12:32:43;23.50;39.40
45843;DHT22;31563;51.744;8.252;2023-04-24T12:35:14;23.40;39.40
45843;DHT22;31563;51.744;8.252;2023-04-24T12:37:46;23.50;39.40
45843;DHT22;31563;51.744;8.252;2023-04-24T12:40:15;23.50;39.50
45843;DHT22;31563;51.744;8.252;2023-04-24T12:42:45;23.60;39.30
45843;DHT22;31563;51.744;8.252;2023-04-24T12:45:14;23.60;39.30
45843;DHT22;31563;51.744;8.252;2023-04-24T12:47:43;23.60;39.10
45843;DHT22;31563;51.744;8.252;2023-04-24T12:50:15;23.70;39.30
45843;DHT22;31563;51.744;8.252;2023-04-24T12:52:44;23.80;39.40
45843;DHT22;31563;51.744;8.252;2023-04-24T12:55:12;23.90;39.10
45843;DHT22;31563;51.744;8.252;2023-04-24T12:57:40;24.00;38.90
45843;DHT22;31563;51.744;8.252;2023-04-24T13:00:09;24.10;38.70
45843;DHT22;31563;51.744;8.252;2023-04-24T13:02:37;24.00;38.10
45843;DHT22;31563;51.744;8.252;2023-04-24T13:05:06;24.00;38.70
45843;DHT22;31563;51.744;8.252;2023-04-24T13:07:36;24.10;38.70
45843;DHT22;31563;51.744;8.252;2023-04-24T13:10:05;24.10;38.80
45843;DHT22;31563;51.744;8.252;2023-04-24T13:12:34;24.20;38.70
45843;DHT22;31563;51.744;8.252;2023-04-24T13:15:03;24.10;38.50
45843;DHT22;31563;51.744;8.252;2023-04-24T13:17:32;24.10;38.60
45843;DHT22;31563;51.744;8.252;2023-04-24T13:20:00;24.20;38.80
45843;DHT22;31563;51.744;8.252;2023-04-24T13:22:29;24.40;39.40
45843;DHT22;31563;51.744;8.252;2023-04-24T13:24:58;24.50;38.40
45843;DHT22;31563;51.744;8.252;2023-04-24T13:27:28;24.70;38.10
45843;DHT22;31563;51.744;8.252;2023-04-24T13:29:56;24.80;37.90
45843;DHT22;31563;51.744;8.252;2023-04-24T13:34:53;24.70;37.20
45843;DHT22;31563;51.744;8.252;2023-04-24T13:37:21;24.60;37.80
45843;DHT22;31563;51.744;8.252;2023-04-24T13:39:50;24.50;37.90
45843;DHT22;31563;51.744;8.252;2023-04-24T13:42:19;24.30;37.90
45843;DHT22;31563;51.744;8.252;2023-04-24T13:44:48;24.20;38.10
45843;DHT22;31563;51.744;8.252;2023-04-24T13:47:17;23.90;38.30
45843;DHT22;31563;51.744;8.252;2023-04-24T13:49:45;23.10;38.90
45843;DHT22;31563;51.744;8.252;2023-04-24T13:52:13;23.40;63.70
45843;DHT22;31563;51.744;8.252;2023-04-24T13:54:42;23.50;38.90
45843;DHT22;31563;51.744;8.252;2023-04-24T13:57:10;23.40;39.10
45843;DHT22;31563;51.744;8.252;2023-04-24T13:59:40;23.30;38.60
45843;DHT22;31563;51.744;8.252;2023-04-24T14:02:08;23.30;38.90
45843;DHT22;31563;51.744;8.252;2023-04-24T14:04:37;23.50;52.30
45843;DHT22;31563;51.744;8.252;2023-04-24T14:09:34;23.40;38.50
45843;DHT22;31563;51.744;8.252;2023-04-24T14:12:03;23.50;39.30
45843;DHT22;31563;51.744;8.252;2023-04-24T14:14:31;23.60;39.30
45843;DHT22;31563;51.744;8.252;2023-04-24T14:17:00;23.80;39.10
45843;DHT22;31563;51.744;8.252;2023-04-24T14:19:28;23.90;39.10
45843;DHT22;31563;51.744;8.252;2023-04-24T14:21:57;24.10;38.80
45843;DHT22;31563;51.744;8.252;2023-04-24T14:24:25;24.20;38.60
45843;DHT22;31563;51.744;8.252;2023-04-24T14:26:53;24.10;38.40
45843;DHT22;31563;51.744;8.252;2023-04-24T14:29:21;24.00;38.40
45843;DHT22;31563;51.744;8.252;2023-04-24T14:31:49;24.00;37.90
45843;DHT22;31563;51.744;8.252;2023-04-24T14:34:19;24.10;38.50
45843;DHT22;31563;51.744;8.252;2023-04-24T14:36:47;24.00;38.50
45843;DHT22;31563;51.744;8.252;2023-04-24T14:39:16;24.10;38.60
45843;DHT22;31563;51.744;8.252;2023-04-24T14:41:44;24.10;37.80
45843;DHT22;31563;51.744;8.252;2023-04-24T14:44:12;24.00;38.20
45843;DHT22;31563;51.744;8.252;2023-04-24T14:46:41;23.80;38.40
45843;DHT22;31563;51.744;8.252;2023-04-24T14:49:09;23.70;38.50
45843;DHT22;31563;51.744;8.252;2023-04-24T14:51:40;23.60;38.60
45843;DHT22;31563;51.744;8.252;2023-04-24T14:54:09;23.60;38.70
45843;DHT22;31563;51.744;8.252;2023-04-24T14:56:37;23.50;38.90
45843;DHT22;31563;51.744;8.252;2023-04-24T15:01:36;23.80;39.80
45843;DHT22;31563;51.744;8.252;2023-04-24T15:04:04;23.70;37.90
45843;DHT22;31563;51.744;8.252;2023-04-24T15:06:33;23.70;72.40
45843;DHT22;31563;51.744;8.252;2023-04-24T15:09:02;23.00;74.90
45843;DHT22;31563;51.744;8.252;2023-04-24T15:18:56;22.00;48.80
45843;DHT22;31563;51.744;8.252;2023-04-24T15:21:24;21.90;50.20
45843;DHT22;31563;51.744;8.252;2023-04-24T15:31:20;21.60;74.80
45843;DHT22;31563;51.744;8.252;2023-04-24T15:33:49;21.80;83.70
45843;DHT22;31563;51.744;8.252;2023-04-24T15:41:16;22.30;60.30
45843;DHT22;31563;51.744;8.252;2023-04-24T15:43:45;22.30;60.80
45843;DHT22;31563;51.744;8.252;2023-04-24T15:46:14;22.30;62.00
45843;DHT22;31563;51.744;8.252;2023-04-24T15:48:42;22.40;63.20
45843;DHT22;31563;51.744;8.252;2023-04-24T15:51:11;22.60;64.00
45843;DHT22;31563;51.744;8.252;2023-04-24T15:53:39;22.60;64.90
45843;DHT22;31563;51.744;8.252;2023-04-24T15:56:08;22.60;66.10
45843;DHT22;31563;51.744;8.252;2023-04-24T15:58:37;22.90;58.20
45843;DHT22;31563;51.744;8.252;2023-04-24T16:01:06;23.10;58.60
45843;DHT22;31563;51.744;8.252;2023-04-24T16:03:34;23.20;58.00
45843;DHT22;31563;51.744;8.252;2023-04-24T16:06:03;23.40;57.60
45843;DHT22;31563;51.744;8.252;2023-04-24T16:08:32;23.60;56.50
45843;DHT22;31563;51.744;8.252;2023-04-24T16:11:00;23.60;55.20
45843;DHT22;31563;51.744;8.252;2023-04-24T16:13:28;23.60;55.20
45843;DHT22;31563;51.744;8.252;2023-04-24T16:15:57;23.50;54.10
45843;DHT22;31563;51.744;8.252;2023-04-24T16:18:27;23.40;54.30